Terminal Aerodrome Forecast
Issued by NWS

Home | Current Version | Previous Version | Graphics & Text | Print | Product List | Glossary On
Versions: 1 2 3 4 5 6 7 8 9 10 11 12 13 14 15
000
FTUS43 KABR 211120
TAFATY
TAF
KATY 211120Z 2112/2212 18015KT P6SM BKN250
     FM211300 20015KT P6SM VCSH BKN020
     FM211600 26012KT P6SM VCSH BKN020
     FM211800 30015G23KT P6SM BKN035
     FM220100 27008KT P6SM SCT250
     FM220300 27009KT P6SM FEW200=

USA.gov is the U.S. government's official web portal to all federal, state and local government web resources and services.